createdAt,value
2023-01-13T00:00:26.792Z,0.40
2023-01-13T00:02:53.594Z,0.40
2023-01-13T00:05:20.492Z,0.40
2023-01-13T00:07:49.024Z,0.40
2023-01-13T00:10:16.102Z,0.45
2023-01-13T00:12:43.804Z,0.40
2023-01-13T00:15:11.875Z,0.55
2023-01-13T00:17:39.420Z,0.50
2023-01-13T00:20:07.345Z,0.68
2023-01-13T00:22:35.732Z,0.45
2023-01-13T00:25:04.639Z,0.40
2023-01-13T00:27:31.952Z,0.40
2023-01-13T00:30:02.374Z,0.50
2023-01-13T00:32:29.614Z,0.32
2023-01-13T00:34:56.835Z,0.50
2023-01-13T00:37:23.902Z,0.47
2023-01-13T00:39:53.544Z,0.40
2023-01-13T00:42:42.078Z,0.38
2023-01-13T00:45:09.415Z,0.40
2023-01-13T00:47:36.246Z,0.40
2023-01-13T00:50:05.948Z,0.30
2023-01-13T00:52:36.667Z,0.40
2023-01-13T00:55:06.199Z,0.50
2023-01-13T00:57:32.935Z,0.40
2023-01-13T00:59:59.697Z,0.40
2023-01-13T01:02:26.655Z,0.45
2023-01-13T01:04:56.630Z,0.40
2023-01-13T01:07:23.530Z,0.30
2023-01-13T01:09:50.453Z,0.40
2023-01-13T01:12:17.352Z,0.30
2023-01-13T01:14:44.317Z,0.40
2023-01-13T01:17:12.785Z,0.40
2023-01-13T01:19:39.894Z,0.50
2023-01-13T01:22:06.843Z,0.35
2023-01-13T01:24:33.545Z,0.40
2023-01-13T01:27:00.353Z,0.57
2023-01-13T01:29:27.467Z,0.30
2023-01-13T01:31:54.421Z,0.32
2023-01-13T01:34:21.226Z,0.40
2023-01-13T01:36:48.098Z,0.40
2023-01-13T01:39:15.251Z,0.40
2023-01-13T01:42:02.110Z,0.40
2023-01-13T01:44:59.319Z,0.40
2023-01-13T01:47:27.302Z,0.40
2023-01-13T01:49:55.470Z,0.40
2023-01-13T01:52:38.115Z,0.30
2023-01-13T01:55:05.262Z,0.40
2023-01-13T01:57:41.320Z,0.30
2023-01-13T02:00:08.954Z,0.30
2023-01-13T02:02:37.052Z,0.40
2023-01-13T02:05:04.003Z,0.30
2023-01-13T02:07:32.692Z,0.40
2023-01-13T02:10:04.371Z,0.40
2023-01-13T02:12:32.361Z,0.40
2023-01-13T02:15:20.796Z,0.52
2023-01-13T02:17:58.062Z,0.40
2023-01-13T02:20:56.707Z,0.40
2023-01-13T02:24:09.278Z,0.40
2023-01-13T02:26:58.220Z,0.30
2023-01-13T02:29:59.291Z,0.30
2023-01-13T02:33:03.994Z,0.40
2023-01-13T02:35:51.259Z,0.40
2023-01-13T02:38:26.347Z,0.30
2023-01-13T02:41:38.891Z,0.40
2023-01-13T02:44:07.451Z,0.30
2023-01-13T02:46:44.834Z,0.68
2023-01-13T02:49:19.704Z,0.35
2023-01-13T02:51:49.405Z,0.30
2023-01-13T02:54:22.985Z,0.35
2023-01-13T02:56:51.384Z,0.30
2023-01-13T02:59:19.112Z,0.40
2023-01-13T03:01:46.113Z,0.30
2023-01-13T03:04:14.504Z,0.43
2023-01-13T03:06:48.969Z,0.30
2023-01-13T03:09:22.478Z,0.40
2023-01-13T03:12:23.811Z,0.75
2023-01-13T03:15:37.280Z,0.30
2023-01-13T03:18:22.784Z,0.30
2023-01-13T03:21:35.860Z,0.30
2023-01-13T03:24:20.642Z,0.30
2023-01-13T03:26:50.698Z,0.30
2023-01-13T03:29:35.060Z,0.40
2023-01-13T03:32:08.899Z,0.40
2023-01-13T03:34:46.009Z,0.40
2023-01-13T03:37:14.640Z,0.40
2023-01-13T03:39:46.675Z,0.30
2023-01-13T03:42:19.001Z,0.30
2023-01-13T03:44:50.839Z,0.40
2023-01-13T03:47:23.257Z,0.35
2023-01-13T03:50:04.304Z,0.40
2023-01-13T03:52:37.311Z,0.30
2023-01-13T03:55:13.859Z,0.30
2023-01-13T03:57:48.789Z,0.40
2023-01-13T04:00:16.622Z,0.40
2023-01-13T04:02:59.046Z,0.40
2023-01-13T04:05:26.877Z,0.40
2023-01-13T04:08:03.560Z,0.40
2023-01-13T04:10:38.945Z,0.40
2023-01-13T04:13:09.500Z,0.35
2023-01-13T04:15:40.089Z,0.40
2023-01-13T04:18:16.576Z,0.40
2023-01-13T04:20:48.514Z,0.40
2023-01-13T04:23:16.228Z,0.32
2023-01-13T04:25:46.435Z,0.30
2023-01-13T04:28:13.974Z,0.30
2023-01-13T04:30:41.756Z,0.30
2023-01-13T04:33:08.830Z,0.40
2023-01-13T04:35:36.278Z,0.30
2023-01-13T04:38:07.736Z,0.30
2023-01-13T04:40:34.614Z,0.30
2023-01-13T04:43:01.613Z,0.40
2023-01-13T04:45:28.570Z,0.38
2023-01-13T04:47:55.532Z,0.30
2023-01-13T04:50:22.884Z,0.50
2023-01-13T04:52:50.986Z,0.40
2023-01-13T04:55:18.852Z,0.40
2023-01-13T04:57:46.201Z,0.43
2023-01-13T05:00:17.618Z,0.40
2023-01-13T05:02:44.484Z,0.30
2023-01-13T05:05:11.486Z,0.73
2023-01-13T05:07:38.387Z,0.40
2023-01-13T05:10:05.636Z,0.43
2023-01-13T05:12:50.871Z,0.40
2023-01-13T05:15:36.178Z,0.50
2023-01-13T05:18:02.989Z,0.43
2023-01-13T05:20:29.896Z,0.30
2023-01-13T05:23:15.428Z,0.30
2023-01-13T05:25:45.049Z,0.30
2023-01-13T05:28:13.210Z,0.32
2023-01-13T05:30:42.734Z,0.40
2023-01-13T05:33:10.953Z,0.50
2023-01-13T05:35:39.120Z,0.30
2023-01-13T05:38:05.982Z,0.50
2023-01-13T05:40:51.406Z,0.38
2023-01-13T05:43:20.969Z,0.30
2023-01-13T05:45:51.134Z,0.47
2023-01-13T05:48:19.579Z,0.40
2023-01-13T05:50:47.652Z,0.30
2023-01-13T05:53:17.535Z,0.40
2023-01-13T05:55:45.109Z,0.40
2023-01-13T05:58:17.055Z,0.30
2023-01-13T06:00:44.150Z,0.35
2023-01-13T06:03:14.825Z,0.30
2023-01-13T06:05:47.080Z,0.50
2023-01-13T06:08:14.339Z,0.40
2023-01-13T06:10:41.243Z,0.40
2023-01-13T06:13:07.938Z,0.40
2023-01-13T06:15:34.705Z,0.47
2023-01-13T06:18:05.481Z,0.50
2023-01-13T06:20:32.794Z,0.40
2023-01-13T06:22:59.744Z,0.35
2023-01-13T06:25:53.940Z,0.50
2023-01-13T06:28:23.422Z,0.40
2023-01-13T06:30:55.566Z,0.40
2023-01-13T06:33:27.183Z,0.40
2023-01-13T06:35:57.787Z,0.30
2023-01-13T06:38:26.278Z,0.30
2023-01-13T06:40:53.549Z,0.40
2023-01-13T06:43:20.499Z,0.40
2023-01-13T06:45:50.595Z,0.40
2023-01-13T06:48:18.553Z,0.40
2023-01-13T06:50:45.660Z,0.40
2023-01-13T06:53:12.551Z,0.50
2023-01-13T06:55:39.337Z,0.45
2023-01-13T06:58:06.749Z,0.50
2023-01-13T07:00:35.928Z,0.30
2023-01-13T07:03:10.382Z,0.40
2023-01-13T07:05:37.796Z,0.30
2023-01-13T07:08:05.867Z,0.40
2023-01-13T07:10:33.459Z,0.30
2023-01-13T07:13:20.523Z,0.43
2023-01-13T07:15:58.966Z,0.40
2023-01-13T07:18:27.819Z,0.60
2023-01-13T07:20:57.008Z,0.35
2023-01-13T07:23:24.745Z,0.50
2023-01-13T07:25:51.486Z,0.30
2023-01-13T07:28:21.344Z,0.40
2023-01-13T07:30:48.553Z,0.50
2023-01-13T07:33:18.052Z,0.40
2023-01-13T07:35:45.706Z,0.88
2023-01-13T07:38:13.709Z,0.47
2023-01-13T07:40:41.271Z,0.40
2023-01-13T07:43:29.145Z,0.50
2023-01-13T07:45:58.764Z,0.40
2023-01-13T07:48:30.046Z,0.32
2023-01-13T07:50:57.076Z,0.38
2023-01-13T07:53:29.906Z,0.40
2023-01-13T07:55:58.513Z,0.40
2023-01-13T07:58:26.526Z,0.50
2023-01-13T08:00:53.596Z,0.30
2023-01-13T08:03:20.642Z,0.50
2023-01-13T08:05:47.750Z,0.40
2023-01-13T08:08:15.044Z,0.40
2023-01-13T08:10:42.231Z,0.35
2023-01-13T08:13:21.321Z,0.30
2023-01-13T08:15:53.365Z,0.43
2023-01-13T08:18:23.055Z,0.50
2023-01-13T08:20:52.691Z,0.65
2023-01-13T08:23:21.126Z,0.40
2023-01-13T08:25:50.935Z,0.35
2023-01-13T08:28:18.441Z,0.47
2023-01-13T08:30:45.315Z,0.40
2023-01-13T08:33:15.066Z,0.30
2023-01-13T08:35:42.432Z,0.35
2023-01-13T08:38:09.740Z,0.40
2023-01-13T08:40:36.627Z,0.40
2023-01-13T08:43:03.712Z,0.43
2023-01-13T08:45:30.640Z,0.40
2023-01-13T08:47:57.456Z,0.50
2023-01-13T08:50:24.341Z,0.40
2023-01-13T08:52:51.133Z,0.40
2023-01-13T08:55:46.355Z,0.50
2023-01-13T08:58:16.076Z,0.40
2023-01-13T09:00:43.982Z,0.57
2023-01-13T09:03:11.173Z,0.40
2023-01-13T09:05:38.241Z,0.70
2023-01-13T09:08:08.177Z,0.50
2023-01-13T09:10:35.941Z,0.50
2023-01-13T09:13:15.022Z,0.80
2023-01-13T09:15:45.297Z,0.60
2023-01-13T09:18:13.094Z,0.80
2023-01-13T09:20:40.459Z,0.95
2023-01-13T09:23:09.997Z,0.60
2023-01-13T09:25:37.693Z,0.43
2023-01-13T09:28:08.926Z,0.95
2023-01-13T09:30:37.288Z,0.93
2023-01-13T09:33:27.226Z,0.60
2023-01-13T09:35:59.269Z,0.75
2023-01-13T09:38:25.929Z,0.70
2023-01-13T09:40:53.144Z,0.55
2023-01-13T09:43:52.403Z,0.50
2023-01-13T09:46:45.026Z,0.80
2023-01-13T09:49:20.681Z,0.70
2023-01-13T09:52:26.844Z,0.55
2023-01-13T09:55:16.228Z,0.60
2023-01-13T09:57:53.644Z,0.45
2023-01-13T10:00:28.034Z,0.40
2023-01-13T10:02:54.891Z,0.43
2023-01-13T10:05:38.897Z,0.50
2023-01-13T10:08:14.186Z,0.52
2023-01-13T10:10:47.061Z,0.43
2023-01-13T10:13:24.798Z,0.60
2023-01-13T10:16:42.305Z,0.50
2023-01-13T10:19:32.724Z,0.52
2023-01-13T10:22:28.710Z,0.50
2023-01-13T10:25:18.545Z,0.50
2023-01-13T10:27:49.775Z,0.50
2023-01-13T10:30:33.191Z,0.80
2023-01-13T10:33:13.819Z,1.48
2023-01-13T10:36:03.683Z,0.55
2023-01-13T10:38:48.478Z,0.75
2023-01-13T10:41:15.461Z,0.50
2023-01-13T10:44:09.640Z,0.50
2023-01-13T10:46:52.265Z,0.70
2023-01-13T10:49:38.851Z,0.50
2023-01-13T10:52:26.260Z,0.60
2023-01-13T10:54:56.634Z,0.73
2023-01-13T10:57:25.518Z,0.70
2023-01-13T10:59:53.595Z,0.50
2023-01-13T11:02:33.182Z,0.60
2023-01-13T11:05:06.253Z,0.45
2023-01-13T11:07:36.668Z,0.45
2023-01-13T11:10:10.081Z,0.80
2023-01-13T11:12:54.728Z,0.55
2023-01-13T11:15:32.185Z,0.80
2023-01-13T11:18:09.273Z,0.65
2023-01-13T11:20:50.581Z,0.65
2023-01-13T11:23:29.719Z,1.02
2023-01-13T11:26:05.904Z,0.77
2023-01-13T11:28:48.169Z,0.57
2023-01-13T11:31:45.723Z,1.73
2023-01-13T11:34:27.538Z,0.90
2023-01-13T11:36:56.065Z,1.00
2023-01-13T11:39:44.790Z,0.80
2023-01-13T11:42:21.544Z,0.60
2023-01-13T11:44:56.531Z,0.50
2023-01-13T11:47:25.237Z,0.88
2023-01-13T11:49:54.695Z,0.70
2023-01-13T11:52:51.628Z,0.65
2023-01-13T11:55:55.573Z,1.45
2023-01-13T11:58:31.856Z,0.50
2023-01-13T12:01:23.450Z,0.88
2023-01-13T12:03:59.001Z,0.90
2023-01-13T12:06:39.475Z,0.90
2023-01-13T12:09:26.938Z,1.10
2023-01-13T12:12:22.282Z,1.00
2023-01-13T12:15:12.925Z,0.80
2023-01-13T12:18:08.046Z,0.95
2023-01-13T12:20:53.130Z,0.90
2023-01-13T12:23:31.291Z,1.10
2023-01-13T12:26:10.781Z,0.68
2023-01-13T12:28:43.788Z,0.80
2023-01-13T12:31:13.950Z,0.80
2023-01-13T12:33:46.768Z,0.70
2023-01-13T12:36:36.780Z,1.08
2023-01-13T12:39:25.042Z,1.00
2023-01-13T12:42:29.746Z,0.70
2023-01-13T12:45:22.125Z,0.80
2023-01-13T12:47:51.590Z,0.80
2023-01-13T12:50:24.839Z,0.95
2023-01-13T12:52:58.191Z,1.05
2023-01-13T12:55:34.239Z,0.90
2023-01-13T12:58:06.497Z,1.17
2023-01-13T13:01:04.831Z,0.80
2023-01-13T13:03:35.996Z,0.85
2023-01-13T13:06:15.180Z,1.02
2023-01-13T13:08:53.345Z,1.10
2023-01-13T13:11:54.197Z,0.90
2023-01-13T13:14:39.252Z,1.00
2023-01-13T13:17:28.499Z,1.10
2023-01-13T13:19:59.797Z,1.30
2023-01-13T13:22:26.457Z,0.70
2023-01-13T13:24:56.527Z,1.00
2023-01-13T13:27:32.129Z,1.20
2023-01-13T13:30:21.921Z,0.80
2023-01-13T13:32:48.693Z,1.08
2023-01-13T13:35:21.442Z,0.93
2023-01-13T13:38:34.090Z,0.73
2023-01-13T13:41:24.844Z,0.90
2023-01-13T13:44:10.172Z,0.95
2023-01-13T13:46:48.393Z,0.90
2023-01-13T13:49:34.518Z,1.05
2023-01-13T13:52:07.237Z,1.40
2023-01-13T13:54:33.959Z,1.00
2023-01-13T13:57:01.186Z,1.30
2023-01-13T13:59:33.680Z,1.00
2023-01-13T14:02:04.206Z,1.10
2023-01-13T14:04:33.602Z,0.93
2023-01-13T14:07:05.145Z,1.45
2023-01-13T14:09:41.592Z,0.98
2023-01-13T14:12:17.759Z,1.08
2023-01-13T14:14:45.754Z,1.00
2023-01-13T14:17:30.972Z,1.08
2023-01-13T14:20:09.726Z,1.20
2023-01-13T14:22:36.909Z,1.20
2023-01-13T14:25:40.276Z,0.98
2023-01-13T14:28:22.106Z,1.08
2023-01-13T14:30:50.388Z,0.70
2023-01-13T14:33:23.578Z,1.25
2023-01-13T14:36:06.317Z,1.17
2023-01-13T14:38:33.093Z,1.00
2023-01-13T14:41:26.986Z,0.98
2023-01-13T14:43:57.351Z,1.17
2023-01-13T14:46:26.960Z,1.10
2023-01-13T14:49:02.120Z,0.75
2023-01-13T14:51:32.325Z,1.40
2023-01-13T14:53:59.776Z,0.80
2023-01-13T14:57:05.247Z,1.00
2023-01-13T14:59:48.345Z,1.50
2023-01-13T15:02:29.976Z,1.10
2023-01-13T15:04:59.434Z,1.45
2023-01-13T15:07:35.361Z,0.98
2023-01-13T15:10:04.273Z,1.58
2023-01-13T15:12:39.729Z,1.20
2023-01-13T15:15:21.488Z,1.30
2023-01-13T15:17:48.172Z,1.30
2023-01-13T15:20:16.397Z,1.00
2023-01-13T15:22:43.092Z,1.17
2023-01-13T15:25:10.718Z,1.33
2023-01-13T15:27:38.643Z,1.20
2023-01-13T15:30:15.865Z,1.45
2023-01-13T15:32:43.996Z,1.23
2023-01-13T15:35:17.866Z,1.83
2023-01-13T15:37:45.496Z,1.00
2023-01-13T15:40:20.620Z,1.98
2023-01-13T15:43:08.939Z,1.52
2023-01-13T15:45:57.441Z,1.10
2023-01-13T15:48:25.318Z,2.08
2023-01-13T15:50:52.078Z,1.40
2023-01-13T15:53:19.030Z,1.52
2023-01-13T15:55:51.594Z,1.10
2023-01-13T15:58:21.111Z,1.08
2023-01-13T16:00:50.607Z,1.17
2023-01-13T16:03:17.456Z,0.98
2023-01-13T16:05:44.700Z,1.20
2023-01-13T16:08:15.830Z,1.33
2023-01-13T16:10:43.505Z,1.02
2023-01-13T16:13:12.754Z,0.85
2023-01-13T16:15:46.952Z,1.05
2023-01-13T16:18:23.984Z,1.02
2023-01-13T16:20:53.565Z,1.58
2023-01-13T16:23:20.479Z,1.80
2023-01-13T16:25:47.976Z,1.20
2023-01-13T16:28:34.367Z,0.98
2023-01-13T16:31:16.768Z,0.77
2023-01-13T16:33:48.607Z,1.17
2023-01-13T16:36:17.724Z,1.33
2023-01-13T16:38:47.830Z,1.40
2023-01-13T16:41:15.008Z,1.02
2023-01-13T16:43:41.910Z,2.13
2023-01-13T16:46:18.795Z,1.15
2023-01-13T16:48:46.394Z,0.90
2023-01-13T16:51:13.529Z,1.00
2023-01-13T16:53:40.453Z,1.65
2023-01-13T16:56:27.954Z,1.10
2023-01-13T16:58:57.511Z,1.40
2023-01-13T17:01:24.664Z,1.00
2023-01-13T17:03:52.566Z,1.15
2023-01-13T17:06:25.841Z,1.27
2023-01-13T17:08:53.609Z,1.15
2023-01-13T17:11:21.335Z,1.05
2023-01-13T17:13:48.159Z,1.42
2023-01-13T17:16:18.248Z,1.50
2023-01-13T17:18:48.157Z,2.00
2023-01-13T17:21:16.009Z,1.20
2023-01-13T17:23:43.501Z,1.40
2023-01-13T17:26:32.534Z,2.00
2023-01-13T17:29:03.386Z,1.25
2023-01-13T17:31:32.518Z,1.45
2023-01-13T17:33:59.557Z,1.20
2023-01-13T17:36:26.355Z,1.45
2023-01-13T17:38:57.475Z,1.70
2023-01-13T17:41:25.865Z,1.52
2023-01-13T17:43:53.583Z,1.13
2023-01-13T17:46:20.866Z,1.20
2023-01-13T17:48:47.708Z,1.60
2023-01-13T17:51:16.945Z,1.42
2023-01-13T17:53:45.719Z,1.08
2023-01-13T17:56:14.352Z,1.20
2023-01-13T17:58:47.052Z,1.45
2023-01-13T18:01:16.730Z,0.90
2023-01-13T18:03:43.799Z,1.13
2023-01-13T18:06:17.108Z,1.48
2023-01-13T18:08:44.024Z,1.40
2023-01-13T18:11:13.282Z,1.20
2023-01-13T18:13:49.332Z,1.00
2023-01-13T18:16:18.554Z,1.27
2023-01-13T18:19:14.563Z,1.30
2023-01-13T18:22:02.796Z,1.70
2023-01-13T18:24:48.258Z,1.60
2023-01-13T18:27:19.476Z,1.58
2023-01-13T18:29:47.015Z,1.30
2023-01-13T18:32:15.048Z,1.42
2023-01-13T18:34:42.204Z,1.40
2023-01-13T18:37:10.280Z,1.02
2023-01-13T18:39:37.620Z,1.48
2023-01-13T18:42:25.096Z,1.30
2023-01-13T19:14:09.224Z,1.55
2023-01-13T19:16:36.519Z,1.02
2023-01-13T19:19:03.349Z,1.40
2023-01-13T19:21:30.354Z,1.30
2023-01-13T19:24:00.038Z,1.40
2023-01-13T19:26:27.212Z,1.75
2023-01-13T19:28:54.487Z,0.90
2023-01-13T19:31:26.629Z,1.15
2023-01-13T19:33:59.727Z,0.93
2023-01-13T19:36:36.606Z,1.40
2023-01-13T19:39:08.793Z,1.90
2023-01-13T19:41:54.411Z,1.27
2023-01-13T19:44:40.083Z,1.70
2023-01-13T19:47:09.748Z,0.90
2023-01-13T19:49:36.874Z,1.05
2023-01-13T19:52:04.357Z,0.90
2023-01-13T19:54:31.610Z,1.15
2023-01-13T19:56:58.897Z,1.50
2023-01-13T19:59:30.021Z,1.02
2023-01-13T20:01:58.814Z,1.70
2023-01-13T20:04:34.298Z,0.93
2023-01-13T20:07:01.304Z,0.80
2023-01-13T20:09:30.914Z,1.02
2023-01-13T20:11:57.872Z,0.90
2023-01-13T20:14:32.975Z,1.27
2023-01-13T20:17:00.736Z,1.83
2023-01-13T20:19:30.589Z,1.25
2023-01-13T20:21:57.976Z,1.30
2023-01-13T20:24:26.622Z,1.42
2023-01-13T20:26:55.274Z,1.10
2023-01-13T20:29:22.960Z,1.27
2023-01-13T20:31:51.656Z,2.13
2023-01-13T20:34:21.794Z,1.17
2023-01-13T20:36:50.315Z,1.08
2023-01-13T20:39:19.804Z,1.10
2023-01-13T20:42:05.260Z,0.90
2023-01-13T20:44:32.252Z,1.15
2023-01-13T20:46:59.978Z,0.82
2023-01-13T20:49:35.587Z,1.27
2023-01-13T20:52:10.267Z,1.10
2023-01-13T20:54:38.338Z,1.13
2023-01-13T20:57:06.918Z,1.17
2023-01-13T20:59:34.379Z,1.88
2023-01-13T21:02:08.163Z,1.45
2023-01-13T21:04:39.350Z,1.00
2023-01-13T21:07:06.736Z,1.00
2023-01-13T21:09:33.811Z,1.20
2023-01-13T21:12:19.109Z,1.15
2023-01-13T21:15:04.496Z,0.95
2023-01-13T21:17:49.977Z,1.13
2023-01-13T21:20:16.953Z,1.02
2023-01-13T21:22:48.077Z,1.20
2023-01-13T21:25:16.075Z,1.10
2023-01-13T21:27:44.357Z,1.00
2023-01-13T21:30:19.559Z,0.90
2023-01-13T21:32:47.063Z,1.00
2023-01-13T21:35:14.758Z,1.15
2023-01-13T21:37:42.817Z,1.17
2023-01-13T21:40:12.487Z,1.58
2023-01-13T21:42:58.550Z,1.30
2023-01-13T21:45:44.511Z,1.00
2023-01-13T21:48:11.291Z,1.40
2023-01-13T21:50:38.471Z,0.95
2023-01-13T21:53:05.527Z,1.08
2023-01-13T21:55:37.015Z,0.80
2023-01-13T21:58:10.981Z,1.13
2023-01-13T22:00:41.837Z,1.35
2023-01-13T22:03:09.687Z,1.00
2023-01-13T22:05:37.128Z,0.88
2023-01-13T22:08:04.518Z,1.38
2023-01-13T22:10:31.725Z,1.17
2023-01-13T22:13:21.026Z,1.10
2023-01-13T22:15:48.217Z,2.35
2023-01-13T22:18:15.127Z,0.88
2023-01-13T22:20:43.025Z,1.00
2023-01-13T22:23:10.120Z,0.85
2023-01-13T22:25:36.858Z,0.80
2023-01-13T22:28:04.453Z,1.02
2023-01-13T22:30:32.792Z,1.00
2023-01-13T22:33:00.257Z,0.95
2023-01-13T22:35:27.643Z,0.98
2023-01-13T22:37:54.402Z,0.73
2023-01-13T22:40:21.253Z,1.20
2023-01-13T22:42:50.219Z,1.05
2023-01-13T22:45:19.893Z,0.93
2023-01-13T22:47:50.222Z,1.02
2023-01-13T22:50:23.760Z,1.05
2023-01-13T22:52:50.742Z,1.00
2023-01-13T22:55:17.520Z,1.02
2023-01-13T22:57:48.214Z,0.90
2023-01-13T23:00:19.155Z,0.95
2023-01-13T23:02:46.397Z,1.02
2023-01-13T23:05:16.020Z,0.98
2023-01-13T23:07:42.986Z,1.25
2023-01-13T23:10:10.447Z,1.17
2023-01-13T23:12:37.343Z,1.70
2023-01-13T23:15:05.724Z,1.15
2023-01-13T23:17:32.647Z,0.93
2023-01-13T23:19:59.520Z,1.33
2023-01-13T23:22:26.691Z,1.45
2023-01-13T23:24:56.275Z,1.38
2023-01-13T23:27:22.982Z,0.98
2023-01-13T23:29:49.745Z,1.52
2023-01-13T23:32:19.524Z,1.30
2023-01-13T23:34:46.234Z,1.17
2023-01-13T23:37:13.019Z,1.05
2023-01-13T23:39:39.840Z,0.90
2023-01-13T23:42:06.585Z,1.85
2023-01-13T23:44:33.333Z,1.20
2023-01-13T23:47:00.172Z,1.30
2023-01-13T23:49:27.092Z,1.20
2023-01-13T23:51:53.857Z,1.27
2023-01-13T23:54:20.765Z,1.05
2023-01-13T23:56:49.573Z,1.20
2023-01-13T23:59:16.365Z,0.93
